createdAt,value
2023-04-23T00:01:42.617Z,16.65
2023-04-23T00:04:20.540Z,16.02
2023-04-23T00:06:58.299Z,13.88
2023-04-23T00:09:36.141Z,16.42
2023-04-23T00:12:13.321Z,24.83
2023-04-23T00:14:50.067Z,26.88
2023-04-23T00:17:26.506Z,23.63
2023-04-23T00:20:02.821Z,18.77
2023-04-23T00:22:39.289Z,21.40
2023-04-23T00:25:15.656Z,34.85
2023-04-23T00:27:51.944Z,36.88
2023-04-23T00:30:28.777Z,44.75
2023-04-23T00:33:05.072Z,64.05
2023-04-23T00:35:41.445Z,53.13
2023-04-23T00:38:17.838Z,48.40
2023-04-23T00:40:54.286Z,52.78
2023-04-23T00:43:31.445Z,59.80
2023-04-23T00:46:08.471Z,63.25
2023-04-23T00:48:46.848Z,59.13
2023-04-23T00:51:23.917Z,48.72
2023-04-23T00:54:00.119Z,30.70
2023-04-23T00:56:36.874Z,45.60
2023-04-23T00:59:15.294Z,35.80
2023-04-23T01:01:52.544Z,46.22
2023-04-23T01:04:31.407Z,48.78
2023-04-23T01:07:07.738Z,46.33
2023-04-23T01:09:44.209Z,51.45
2023-04-23T01:12:20.459Z,45.15
2023-04-23T01:14:58.156Z,49.60
2023-04-23T01:17:34.697Z,43.08
2023-04-23T01:20:11.221Z,48.92
2023-04-23T01:22:47.632Z,50.58
2023-04-23T01:25:24.095Z,50.13
2023-04-23T01:28:00.853Z,47.53
2023-04-23T01:30:38.218Z,62.20
2023-04-23T01:33:15.558Z,62.90
2023-04-23T01:35:52.405Z,50.63
2023-04-23T01:38:32.167Z,47.15
2023-04-23T01:41:08.550Z,51.03
2023-04-23T01:43:45.773Z,45.38
2023-04-23T01:46:22.534Z,53.65
2023-04-23T01:48:58.822Z,42.85
2023-04-23T01:51:35.612Z,43.50
2023-04-23T01:54:11.958Z,28.83
2023-04-23T01:56:48.478Z,24.23
2023-04-23T01:59:25.454Z,29.38
2023-04-23T02:02:01.728Z,24.55
2023-04-23T02:04:39.988Z,32.33
2023-04-23T02:07:16.660Z,33.45
2023-04-23T02:09:52.788Z,27.63
2023-04-23T02:12:29.143Z,33.53
2023-04-23T02:15:07.302Z,24.13
2023-04-23T02:17:43.452Z,27.73
2023-04-23T02:20:21.129Z,30.27
2023-04-23T02:22:57.499Z,32.35
2023-04-23T02:25:33.856Z,32.88
2023-04-23T02:28:12.732Z,24.90
2023-04-23T02:30:50.475Z,23.20
2023-04-23T02:33:26.806Z,22.20
2023-04-23T02:36:03.392Z,25.80
2023-04-23T02:38:44.234Z,23.80
2023-04-23T02:41:21.111Z,25.92
2023-04-23T02:43:57.467Z,32.13
2023-04-23T02:46:35.636Z,36.10
2023-04-23T02:49:11.945Z,43.92
2023-04-23T02:51:48.351Z,37.33
2023-04-23T02:54:25.684Z,42.65
2023-04-23T02:57:02.465Z,37.47
2023-04-23T02:59:38.575Z,40.78
2023-04-23T03:02:15.215Z,35.55
2023-04-23T03:04:51.635Z,36.95
2023-04-23T03:07:27.691Z,38.90
2023-04-23T03:10:05.237Z,37.97
2023-04-23T03:12:41.477Z,27.95
2023-04-23T03:15:17.962Z,33.55
2023-04-23T03:17:54.097Z,36.25
2023-04-23T03:20:30.521Z,37.67
2023-04-23T03:23:06.864Z,55.55
2023-04-23T03:25:43.151Z,68.85
2023-04-23T03:28:19.359Z,56.92
2023-04-23T03:30:56.033Z,46.88
2023-04-23T03:33:32.467Z,53.80
2023-04-23T03:36:08.875Z,52.22
2023-04-23T03:38:45.195Z,46.30
2023-04-23T03:41:21.566Z,87.47
2023-04-23T03:43:59.811Z,86.40
2023-04-23T03:46:51.707Z,167.98
2023-04-23T03:49:28.076Z,173.02
2023-04-23T03:52:05.271Z,164.50
2023-04-23T03:54:43.342Z,101.03
2023-04-23T03:57:31.433Z,124.90
2023-04-23T04:00:32.440Z,101.13
2023-04-23T04:03:09.113Z,75.80
2023-04-23T04:05:45.469Z,59.97
2023-04-23T04:08:22.242Z,69.28
2023-04-23T04:10:58.615Z,88.90
2023-04-23T04:13:35.203Z,95.05
2023-04-23T04:16:11.239Z,98.18
2023-04-23T04:18:47.527Z,104.60
2023-04-23T04:21:23.846Z,78.22
2023-04-23T04:24:06.580Z,82.53
2023-04-23T04:26:43.772Z,85.80
2023-04-23T04:29:23.604Z,104.30
2023-04-23T04:32:00.839Z,90.00
2023-04-23T04:34:37.643Z,86.88
2023-04-23T04:37:13.860Z,73.80
2023-04-23T04:39:50.620Z,77.13
2023-04-23T04:42:27.075Z,71.18
2023-04-23T04:45:05.497Z,60.15
2023-04-23T04:47:41.832Z,64.43
2023-04-23T04:50:17.962Z,63.17
2023-04-23T04:52:54.342Z,54.30
2023-04-23T04:55:30.689Z,38.75
2023-04-23T04:58:07.040Z,45.25
2023-04-23T05:00:43.929Z,45.03
2023-04-23T05:03:20.530Z,45.63
2023-04-23T05:05:58.241Z,40.33
2023-04-23T05:08:34.674Z,39.27
2023-04-23T05:11:11.047Z,39.42
2023-04-23T05:13:48.128Z,40.20
2023-04-23T05:16:24.981Z,30.50
2023-04-23T05:19:01.234Z,35.50
2023-04-23T05:21:38.108Z,37.22
2023-04-23T05:24:14.600Z,33.58
2023-04-23T05:26:51.069Z,30.83
2023-04-23T05:29:27.556Z,25.73
2023-04-23T05:32:04.007Z,31.05
2023-04-23T05:34:40.630Z,27.92
2023-04-23T05:37:16.857Z,28.27
2023-04-23T05:39:53.091Z,44.95
2023-04-23T05:42:29.521Z,44.35
2023-04-23T05:45:08.562Z,37.58
2023-04-23T05:47:45.479Z,43.33
2023-04-23T05:50:22.039Z,45.30
2023-04-23T05:52:58.449Z,36.10
2023-04-23T05:55:35.335Z,31.95
2023-04-23T05:58:11.876Z,32.63
2023-04-23T06:00:49.437Z,22.15
2023-04-23T06:03:26.504Z,26.33
2023-04-23T06:06:03.590Z,25.42
2023-04-23T06:08:39.652Z,29.77
2023-04-23T06:11:16.044Z,42.20
2023-04-23T06:13:52.548Z,37.17
2023-04-23T06:16:29.413Z,64.93
2023-04-23T06:19:06.003Z,38.30
2023-04-23T06:21:42.344Z,42.05
2023-04-23T06:24:18.539Z,38.53
2023-04-23T06:26:54.893Z,52.45
2023-04-23T06:29:31.870Z,45.40
2023-04-23T06:32:11.833Z,47.35
2023-04-23T06:35:00.140Z,36.28
2023-04-23T06:37:37.148Z,32.85
2023-04-23T06:40:14.764Z,27.50
2023-04-23T06:42:50.821Z,22.57
2023-04-23T06:45:30.772Z,29.25
2023-04-23T06:48:07.135Z,23.13
2023-04-23T06:50:44.365Z,25.05
2023-04-23T06:53:21.692Z,19.40
2023-04-23T06:55:58.096Z,20.65
2023-04-23T06:58:34.547Z,16.92
2023-04-23T07:01:19.508Z,13.60
2023-04-23T07:03:55.787Z,18.55
2023-04-23T07:06:34.014Z,19.08
2023-04-23T07:09:10.648Z,18.38
2023-04-23T07:11:47.144Z,17.05
2023-04-23T07:14:23.207Z,16.55
2023-04-23T07:16:59.914Z,13.80
2023-04-23T07:19:36.144Z,16.85
2023-04-23T07:22:12.410Z,19.27
2023-04-23T07:24:48.777Z,15.82
2023-04-23T07:27:25.493Z,15.98
2023-04-23T07:30:01.612Z,11.40
2023-04-23T07:32:38.042Z,11.35
2023-04-23T07:35:14.788Z,11.15
2023-04-23T07:37:53.291Z,7.72
2023-04-23T07:43:08.590Z,12.13
2023-04-23T07:45:45.111Z,12.98
2023-04-23T07:48:21.500Z,10.23
2023-04-23T07:50:57.941Z,11.77
2023-04-23T07:53:35.015Z,15.20
2023-04-23T07:56:11.411Z,9.70
2023-04-23T07:58:48.246Z,11.43
2023-04-23T08:01:24.988Z,9.35
2023-04-23T08:04:02.686Z,6.10
2023-04-23T08:06:40.101Z,11.63
2023-04-23T08:09:16.592Z,13.77
2023-04-23T08:11:54.033Z,12.70
2023-04-23T08:14:30.448Z,12.70
2023-04-23T08:17:07.773Z,9.93
2023-04-23T08:19:44.367Z,11.10
2023-04-23T08:22:21.985Z,8.10
2023-04-23T08:24:58.662Z,10.17
2023-04-23T08:27:35.094Z,12.93
2023-04-23T08:30:11.647Z,9.00
2023-04-23T08:32:51.096Z,14.88
2023-04-23T08:35:27.437Z,4.47
2023-04-23T08:38:04.010Z,4.63
2023-04-23T08:40:42.416Z,7.78
2023-04-23T08:43:33.341Z,4.37
2023-04-23T08:46:16.166Z,6.15
2023-04-23T08:48:53.329Z,3.80
2023-04-23T08:51:32.151Z,3.53
2023-04-23T08:54:13.624Z,7.97
2023-04-23T08:56:51.709Z,7.47
2023-04-23T08:59:33.812Z,10.48
2023-04-23T09:02:10.548Z,10.15
2023-04-23T09:04:50.248Z,9.32
2023-04-23T09:07:27.426Z,8.05
2023-04-23T09:10:06.235Z,8.68
2023-04-23T09:12:44.380Z,8.15
2023-04-23T09:15:21.675Z,2.22
2023-04-23T09:17:59.156Z,6.97
2023-04-23T09:20:35.876Z,3.47
2023-04-23T09:23:14.949Z,17.80
2023-04-23T09:25:51.970Z,6.70
2023-04-23T09:28:35.986Z,4.07
2023-04-23T09:31:12.448Z,6.40
2023-04-23T09:33:53.878Z,3.60
2023-04-23T09:36:31.838Z,7.68
2023-04-23T09:39:23.305Z,5.40
2023-04-23T09:42:05.682Z,10.32
2023-04-23T09:44:41.817Z,6.50
2023-04-23T09:47:18.376Z,5.72
2023-04-23T09:49:54.767Z,11.07
2023-04-23T09:52:32.003Z,7.35
2023-04-23T09:55:08.730Z,7.65
2023-04-23T09:57:46.242Z,4.47
2023-04-23T10:00:25.288Z,4.40
2023-04-23T10:03:27.459Z,3.90
2023-04-23T10:06:04.009Z,2.70
2023-04-23T10:08:41.506Z,5.93
2023-04-23T10:11:21.083Z,5.88
2023-04-23T10:13:57.785Z,5.68
2023-04-23T10:16:46.362Z,5.47
2023-04-23T10:19:27.386Z,10.30
2023-04-23T10:22:18.542Z,5.82
2023-04-23T10:24:59.947Z,2.67
2023-04-23T10:27:53.972Z,5.22
2023-04-23T10:30:30.750Z,17.58
2023-04-23T10:33:15.824Z,8.05
2023-04-23T10:35:59.722Z,2.70
2023-04-23T10:38:42.936Z,8.65
2023-04-23T10:41:35.627Z,6.30
2023-04-23T10:44:16.195Z,6.40
2023-04-23T10:46:57.820Z,5.13
2023-04-23T10:49:34.602Z,7.63
2023-04-23T10:52:20.848Z,10.50
2023-04-23T10:54:59.303Z,12.88
2023-04-23T10:58:05.540Z,6.72
2023-04-23T11:00:46.512Z,5.35
2023-04-23T11:03:44.070Z,7.82
2023-04-23T11:06:46.925Z,8.00
2023-04-23T11:09:48.278Z,4.05
2023-04-23T11:12:25.203Z,5.15
2023-04-23T11:15:13.794Z,7.22
2023-04-23T11:17:52.815Z,14.68
2023-04-23T11:23:06.969Z,5.80
2023-04-23T11:25:44.755Z,4.45
2023-04-23T11:28:21.512Z,5.45
2023-04-23T11:30:58.677Z,5.53
2023-04-23T11:33:37.122Z,5.45
2023-04-23T11:36:15.103Z,5.45
2023-04-23T11:38:56.226Z,3.28
2023-04-23T11:41:33.046Z,4.72
2023-04-23T11:44:09.342Z,5.55
2023-04-23T11:46:48.590Z,4.22
2023-04-23T11:49:25.541Z,8.90
2023-04-23T11:52:02.660Z,5.68
2023-04-23T11:54:41.630Z,9.50
2023-04-23T11:59:53.978Z,4.57
2023-04-23T12:02:30.241Z,5.03
2023-04-23T12:05:08.597Z,8.60
2023-04-23T12:07:50.237Z,7.30
2023-04-23T12:10:26.994Z,4.50
2023-04-23T12:13:03.395Z,4.70
2023-04-23T12:15:58.315Z,6.05
2023-04-23T12:18:43.473Z,9.50
2023-04-23T12:21:19.790Z,7.60
2023-04-23T12:23:57.979Z,5.82
2023-04-23T12:26:38.638Z,6.47
2023-04-23T12:29:18.974Z,7.45
2023-04-23T12:31:59.625Z,8.38
2023-04-23T12:34:35.871Z,7.97
2023-04-23T12:37:11.928Z,1.90
2023-04-23T12:39:48.398Z,8.82
2023-04-23T12:42:25.328Z,5.95
2023-04-23T12:45:09.518Z,8.60
2023-04-23T12:47:46.287Z,6.80
2023-04-23T12:50:22.928Z,6.10
2023-04-23T12:52:59.322Z,9.82
2023-04-23T12:55:36.343Z,5.45
2023-04-23T12:58:12.769Z,7.65
2023-04-23T13:00:49.393Z,3.42
2023-04-23T13:03:27.219Z,6.47
2023-04-23T13:06:04.331Z,3.90
2023-04-23T13:08:40.597Z,4.90
2023-04-23T13:11:16.859Z,7.13
2023-04-23T13:13:53.214Z,11.73
2023-04-23T13:16:30.154Z,9.52
2023-04-23T13:19:06.460Z,4.47
2023-04-23T13:21:42.798Z,6.47
2023-04-23T13:24:19.198Z,6.63
2023-04-23T13:26:56.422Z,5.03
2023-04-23T13:29:32.944Z,4.38
2023-04-23T13:32:08.998Z,11.93
2023-04-23T13:34:45.598Z,6.65
2023-04-23T13:37:23.412Z,9.77
2023-04-23T13:39:59.439Z,11.32
2023-04-23T13:42:35.728Z,9.57
2023-04-23T13:45:13.523Z,6.82
2023-04-23T13:50:26.940Z,5.38
2023-04-23T13:53:03.381Z,9.55
2023-04-23T13:55:39.853Z,5.32
2023-04-23T13:58:16.375Z,9.45
2023-04-23T14:00:52.862Z,8.25
2023-04-23T14:03:29.456Z,10.32
2023-04-23T14:06:06.173Z,6.60
2023-04-23T14:08:42.217Z,2.50
2023-04-23T14:11:18.720Z,7.15
2023-04-23T14:13:55.794Z,7.50
2023-04-23T14:16:32.030Z,6.65
2023-04-23T14:19:08.256Z,5.25
2023-04-23T14:21:45.286Z,6.60
2023-04-23T14:24:33.319Z,3.22
2023-04-23T14:27:09.514Z,11.60
2023-04-23T14:29:56.020Z,12.77
2023-04-23T14:32:32.122Z,11.80
2023-04-23T14:35:08.797Z,13.77
2023-04-23T14:37:45.226Z,16.30
2023-04-23T14:40:21.502Z,18.17
2023-04-23T14:43:08.118Z,11.35
2023-04-23T14:45:51.334Z,11.15
2023-04-23T14:48:27.721Z,7.28
2023-04-23T14:51:04.205Z,6.07
2023-04-23T14:53:40.418Z,3.90
2023-04-23T14:56:16.961Z,7.30
2023-04-23T14:58:53.283Z,12.95
2023-04-23T15:01:30.303Z,10.82
2023-04-23T15:04:06.914Z,8.63
2023-04-23T15:06:42.991Z,5.47
2023-04-23T15:09:19.274Z,7.13
2023-04-23T15:11:55.616Z,9.55
2023-04-23T15:14:35.917Z,4.70
2023-04-23T15:17:12.266Z,4.55
2023-04-23T15:19:48.666Z,7.82
2023-04-23T15:22:25.614Z,10.73
2023-04-23T15:25:01.846Z,5.60
2023-04-23T15:27:38.473Z,7.15
2023-04-23T15:30:14.761Z,2.60
2023-04-23T15:32:52.232Z,2.55
2023-04-23T15:35:48.160Z,5.82
2023-04-23T15:38:24.487Z,7.13
2023-04-23T15:41:00.864Z,11.65
2023-04-23T15:43:37.157Z,11.73
2023-04-23T15:46:13.571Z,15.55
2023-04-23T15:48:49.690Z,10.77
2023-04-23T15:51:27.010Z,8.23
2023-04-23T15:54:07.581Z,10.55
2023-04-23T15:56:43.944Z,12.32
2023-04-23T15:59:20.674Z,6.60
2023-04-23T16:01:57.199Z,11.70
2023-04-23T16:04:33.978Z,17.85
2023-04-23T16:07:10.377Z,22.55
2023-04-23T16:09:47.025Z,14.68
2023-04-23T16:12:23.154Z,13.25
2023-04-23T16:14:59.656Z,17.63
2023-04-23T16:17:36.200Z,14.70
2023-04-23T16:20:12.442Z,8.15
2023-04-23T16:22:49.063Z,6.70
2023-04-23T16:25:25.382Z,10.43
2023-04-23T16:28:01.641Z,4.43
2023-04-23T16:30:38.521Z,9.63
2023-04-23T16:33:14.905Z,11.50
2023-04-23T16:35:52.005Z,11.93
2023-04-23T16:38:28.334Z,9.55
2023-04-23T16:41:04.898Z,11.52
2023-04-23T16:43:41.146Z,10.75
2023-04-23T16:46:17.820Z,9.52
2023-04-23T16:48:53.920Z,8.75
2023-04-23T16:51:30.329Z,9.88
2023-04-23T16:54:06.870Z,7.47
2023-04-23T16:56:44.774Z,10.63
2023-04-23T16:59:21.252Z,10.10
2023-04-23T17:01:57.698Z,7.55
2023-04-23T17:04:34.397Z,9.95
2023-04-23T17:07:10.757Z,5.72
2023-04-23T17:09:47.186Z,10.02
2023-04-23T17:12:23.547Z,11.93
2023-04-23T17:15:00.075Z,19.33
2023-04-23T17:17:37.624Z,9.98
2023-04-23T17:20:13.664Z,18.90
2023-04-23T17:22:49.838Z,9.95
2023-04-23T17:25:26.248Z,14.00
2023-04-23T17:28:02.570Z,23.58
2023-04-23T17:30:38.974Z,12.57
2023-04-23T17:33:18.144Z,7.10
2023-04-23T17:35:57.187Z,10.65
2023-04-23T17:38:33.830Z,18.88
2023-04-23T17:41:10.123Z,20.00
2023-04-23T17:43:46.469Z,17.77
2023-04-23T17:46:22.571Z,21.42
2023-04-23T17:48:59.464Z,14.45
2023-04-23T17:51:35.964Z,10.15
2023-04-23T17:54:12.356Z,17.08
2023-04-23T17:56:48.744Z,14.00
2023-04-23T17:59:25.229Z,7.57
2023-04-23T18:02:03.656Z,7.32
2023-04-23T18:04:40.936Z,7.90
2023-04-23T18:07:17.356Z,8.18
2023-04-23T18:09:53.686Z,11.63
2023-04-23T18:12:31.358Z,8.23
2023-04-23T18:15:10.450Z,7.05
2023-04-23T18:17:46.879Z,10.20
2023-04-23T18:20:25.103Z,10.98
2023-04-23T18:23:01.572Z,3.85
2023-04-23T18:25:38.094Z,15.82
2023-04-23T18:28:14.404Z,9.13
2023-04-23T18:30:50.773Z,10.13
2023-04-23T18:33:51.694Z,6.85
2023-04-23T18:36:37.627Z,11.80
2023-04-23T18:39:13.753Z,8.20
2023-04-23T18:41:50.666Z,13.52
2023-04-23T18:44:27.233Z,16.10
2023-04-23T18:47:03.641Z,12.88
2023-04-23T18:49:53.149Z,8.90
2023-04-23T18:55:05.502Z,8.48
2023-04-23T18:57:41.730Z,3.33
2023-04-23T19:00:18.084Z,13.80
2023-04-23T19:02:54.602Z,8.75
2023-04-23T19:05:33.211Z,5.32
2023-04-23T19:08:09.930Z,8.38
2023-04-23T19:10:46.433Z,14.68
2023-04-23T19:13:23.001Z,13.13
2023-04-23T19:15:59.734Z,7.13
2023-04-23T19:18:36.982Z,8.73
2023-04-23T19:21:13.600Z,8.65
2023-04-23T19:23:53.520Z,7.28
2023-04-23T19:26:29.721Z,6.97
2023-04-23T19:29:06.030Z,5.35
2023-04-23T19:31:42.373Z,5.55
2023-04-23T19:34:18.809Z,6.03
2023-04-23T19:36:55.186Z,4.22
2023-04-23T19:39:31.536Z,4.05
2023-04-23T19:42:07.897Z,8.80
2023-04-23T19:44:47.195Z,12.85
2023-04-23T19:47:23.378Z,10.52
2023-04-23T19:49:59.760Z,10.98
2023-04-23T19:52:36.292Z,12.45
2023-04-23T19:55:12.598Z,10.43
2023-04-23T19:57:48.959Z,5.85
2023-04-23T20:00:29.375Z,10.23
2023-04-23T20:03:06.991Z,16.13
2023-04-23T20:05:45.352Z,20.88
2023-04-23T20:08:25.495Z,17.33
2023-04-23T20:11:01.784Z,14.98
2023-04-23T20:13:38.205Z,9.85
2023-04-23T20:16:14.666Z,5.15
2023-04-23T20:18:51.301Z,7.43
2023-04-23T20:21:27.398Z,8.13
2023-04-23T20:24:12.515Z,5.50
2023-04-23T20:26:48.978Z,8.88
2023-04-23T20:29:25.200Z,7.22
2023-04-23T20:32:02.045Z,7.95
2023-04-23T20:34:38.446Z,7.43
2023-04-23T20:37:14.926Z,6.20
2023-04-23T20:39:51.765Z,7.72
2023-04-23T20:42:28.402Z,10.60
2023-04-23T20:45:08.899Z,6.32
2023-04-23T20:47:46.354Z,6.93
2023-04-23T20:50:23.202Z,8.95
2023-04-23T20:53:00.504Z,11.05
2023-04-23T20:55:36.604Z,6.65
2023-04-23T20:58:13.384Z,8.63
2023-04-23T21:00:50.756Z,10.82
2023-04-23T21:03:27.803Z,11.30
2023-04-23T21:06:05.915Z,7.50
2023-04-23T21:08:42.221Z,7.28
2023-04-23T21:11:19.755Z,5.90
2023-04-23T21:13:57.309Z,7.95
2023-04-23T21:16:37.822Z,10.30
2023-04-23T21:19:14.947Z,10.75
2023-04-23T21:21:51.418Z,5.40
2023-04-23T21:24:27.842Z,10.65
2023-04-23T21:27:04.239Z,7.70
2023-04-23T21:29:43.770Z,9.45
2023-04-23T21:32:20.144Z,16.20
2023-04-23T21:34:56.474Z,12.10
2023-04-23T21:37:32.851Z,7.65
2023-04-23T21:40:09.920Z,7.90
2023-04-23T21:42:46.912Z,13.80
2023-04-23T21:45:23.722Z,7.55
2023-04-23T21:48:00.999Z,7.25
2023-04-23T21:50:37.110Z,4.18
2023-04-23T21:53:13.887Z,8.25
2023-04-23T21:55:50.728Z,4.55
2023-04-23T21:58:27.224Z,9.23
2023-04-23T22:01:03.514Z,11.15
2023-04-23T22:03:42.848Z,5.85
2023-04-23T22:06:19.315Z,8.13
2023-04-23T22:08:56.253Z,11.07
2023-04-23T22:11:33.979Z,9.35
2023-04-23T22:14:10.077Z,8.40
2023-04-23T22:16:48.510Z,6.38
2023-04-23T22:19:25.487Z,8.50
2023-04-23T22:22:01.821Z,8.40
2023-04-23T22:24:38.086Z,6.38
2023-04-23T22:27:14.638Z,6.50
2023-04-23T22:29:51.452Z,8.60
2023-04-23T22:32:28.533Z,9.80
2023-04-23T22:35:07.209Z,8.63
2023-04-23T22:37:43.292Z,8.63
2023-04-23T22:40:19.557Z,6.78
2023-04-23T22:42:55.977Z,12.50
2023-04-23T22:45:32.289Z,9.05
2023-04-23T22:48:08.715Z,8.38
2023-04-23T22:50:44.942Z,10.18
2023-04-23T22:53:21.424Z,8.40
2023-04-23T22:55:57.454Z,9.55
2023-04-23T22:58:33.737Z,4.43
2023-04-23T23:01:10.514Z,8.45
2023-04-23T23:03:47.057Z,4.82
2023-04-23T23:06:23.188Z,9.43
2023-04-23T23:08:59.452Z,8.35
2023-04-23T23:11:36.297Z,10.65
2023-04-23T23:14:12.733Z,8.63
2023-04-23T23:16:49.306Z,9.80
2023-04-23T23:19:30.366Z,7.53
2023-04-23T23:22:06.844Z,8.10
2023-04-23T23:24:43.191Z,13.75
2023-04-23T23:27:19.595Z,17.10
2023-04-23T23:29:57.278Z,10.93
2023-04-23T23:32:33.621Z,4.25
2023-04-23T23:35:10.106Z,7.00
2023-04-23T23:37:46.448Z,8.07
2023-04-23T23:40:23.041Z,3.17
2023-04-23T23:42:59.271Z,9.48
2023-04-23T23:45:35.735Z,9.15
2023-04-23T23:48:12.346Z,5.50
2023-04-23T23:50:48.479Z,14.02
2023-04-23T23:53:24.842Z,8.60
2023-04-23T23:56:01.188Z,8.38
2023-04-23T23:58:37.297Z,13.00
